Alvord, Iowa
Current Conditions -  °F | °C
As of 5:14 AM on Sunday 21 Dec 2014 (Local Time) from KLYV Reporting Station
Moderate Fog Moderate Fog  
Wind Chill: 24°   Ceiling: 200
Heat Index: 32°   Visibility: 0.5mi
Dew Point: 32°   Wind: 9mph
Humidity: 100%   Direction: 170°S
Pressure: 29.82"   Gusts: NA
Location:  43.34°N, 96.3°W
Report Text: KLYV 211114Z AUTO 17008KT 1/2SM FG OVC002 00/00 A2982 RMK AO2
Loading
Personal Weather Stations






























Interactive Weather Map New forecast layout! Learn more

10-Day Weather Forecast

Advertisements
Track Severe Weather on mobile